Time;durP1;ratioP1;P1;durP2;ratioP2;P2;SDS_P1;SDS_P2;PMS_P1;PMS_P2;Temp;Humidity;BMP_temperature;BMP_pressure;BME280_temperature;BME280_humidity;BME280_pressure;Samples;Min_cycle;Max_cycle;Signal;HPM_P1;HPM_P2
2022/06/22 00:01:51;;;;;;;;;9.75;9.75;;;;;19.88;100.00;100691.41;6249468;22;45184;-80
2022/06/22 00:04:25;;;;;;;;;13.60;12.80;;;;;19.90;100.00;100688.53;6275988;22;45337;-79
2022/06/22 00:06:55;;;;;;;;;16.80;13.60;;;;;19.89;100.00;100685.00;6275927;22;45255;-80
2022/06/22 00:09:28;;;;;;;;;16.20;14.20;;;;;19.86;100.00;100679.94;6246749;22;45277;-80
2022/06/22 00:11:55;;;;;;;;;11.20;10.80;;;;;19.83;100.00;100687.53;6274311;22;45336;-81
2022/06/22 00:14:27;;;;;;;;;13.00;13.00;;;;;19.80;100.00;100687.84;6274176;22;45250;-79
2022/06/22 00:16:55;;;;;;;;;12.80;12.80;;;;;19.74;100.00;100684.78;6275195;22;45316;-80
2022/06/22 00:19:40;;;;;;;;;15.40;15.40;;;;;19.68;100.00;100671.13;6274716;22;45330;-82
2022/06/22 00:22:25;;;;;;;;;13.00;13.00;;;;;19.65;100.00;100668.75;6274594;22;44664;-80
2022/06/22 00:25:12;;;;;;;;;15.40;15.40;;;;;19.62;100.00;100659.13;6273387;22;45383;-80
2022/06/22 00:27:38;;;;;;;;;12.60;11.80;;;;;19.66;100.00;100648.88;6273627;22;44709;-80
2022/06/22 00:30:09;;;;;;;;;13.50;11.50;;;;;19.58;100.00;100655.06;6274027;22;45230;-80
2022/06/22 00:32:34;;;;;;;;;9.00;9.00;;;;;19.56;100.00;100648.97;6273693;22;44773;-79
2022/06/22 00:35:37;;;;;;;;;13.75;12.75;;;;;19.59;100.00;100655.91;6275922;22;45294;-84
2022/06/22 00:38:06;;;;;;;;;14.80;13.60;;;;;19.60;100.00;100652.22;6275458;22;45377;-83
2022/06/22 00:40:35;;;;;;;;;15.00;15.00;;;;;19.52;100.00;100644.91;6281338;22;45424;-84
2022/06/22 00:43:02;;;;;;;;;17.25;15.75;;;;;19.53;100.00;100652.00;6280310;22;44661;-84
2022/06/22 00:45:31;;;;;;;;;11.25;11.25;;;;;19.48;100.00;100641.69;6276236;22;45238;-83
2022/06/22 00:48:27;;;;;;;;;13.60;12.40;;;;;19.51;100.00;100648.63;6276306;22;44816;-83
2022/06/22 00:51:06;;;;;;;;;13.80;13.80;;;;;19.51;100.00;100652.16;6268322;22;44674;-84
2022/06/22 00:53:55;;;;;;;;;16.00;15.00;;;;;19.51;100.00;100652.16;6275215;22;44823;-80
2022/06/22 00:56:47;;;;;;;;;14.50;11.75;;;;;19.44;100.00;100659.22;6273661;22;45444;-80
2022/06/22 00:59:24;;;;;;;;;10.80;10.80;;;;;19.39;100.00;100663.38;6275022;22;45310;-79
2022/06/22 01:01:58;;;;;;;;;12.80;12.80;;;;;19.40;100.00;100657.00;6274748;22;45380;-81
2022/06/22 01:04:50;;;;;;;;;16.50;16.50;;;;;19.40;100.00;100660.53;6245422;22;44860;-80
2022/06/22 01:07:31;;;;;;;;;14.40;13.00;;;;;19.42;100.00;100663.06;6273588;22;45337;-79
2022/06/22 01:10:04;;;;;;;;;13.80;12.20;;;;;19.36;100.00;100653.78;6246805;22;44786;-80
2022/06/22 01:12:33;;;;;;;;;16.80;15.00;;;;;19.31;100.00;100655.28;6275081;22;44746;-80
2022/06/22 01:15:20;;;;;;;;;16.25;16.25;;;;;19.27;100.00;100654.75;6275152;22;45118;-81
2022/06/22 01:18:11;;;;;;;;;18.20;14.20;;;;;19.26;100.00;100670.06;6276513;22;45201;-80
2022/06/22 01:21:03;;;;;;;;;12.20;12.20;;;;;19.19;100.00;100677.09;6251757;22;44718;-84
2022/06/22 01:23:47;;;;;;;;;16.60;15.40;;;;;19.17;100.00;100673.72;6248023;22;44888;-84
2022/06/22 01:26:31;;;;;;;;;18.75;16.75;;;;;19.12;100.00;100662.59;6277684;22;45166;-83
2022/06/22 01:29:07;;;;;;;;;17.00;15.75;;;;;19.13;100.00;100652.66;6275809;22;45243;-83
2022/06/22 01:31:34;;;;;;;;;21.40;16.40;;;;;19.09;100.00;100641.34;6276713;22;45123;-85
2022/06/22 01:34:01;;;;;;;;;18.50;15.25;;;;;19.07;100.00;100654.16;6276203;22;44735;-85
2022/06/22 01:36:32;;;;;;;;;16.50;14.50;;;;;19.02;100.00;100650.25;6275666;22;45508;-84
2022/06/22 01:38:58;;;;;;;;;16.75;16.75;;;;;19.00;100.00;100663.84;6274590;22;45219;-81
2022/06/22 01:41:53;;;;;;;;;17.50;17.50;;;;;19.00;100.00;100674.63;6274951;22;45514;-80
2022/06/22 01:44:18;;;;;;;;;15.80;15.60;;;;;18.98;100.00;100674.78;6273175;22;44797;-80
2022/06/22 01:47:21;;;;;;;;;15.50;15.50;;;;;18.97;100.00;100678.50;6273950;22;45309;-81
2022/06/22 01:49:58;;;;;;;;;17.75;16.25;;;;;19.00;100.00;100677.31;6245220;22;47676;-81
2022/06/22 01:52:49;;;;;;;;;18.00;15.40;;;;;18.99;100.00;100672.94;6247127;22;44743;-81
2022/06/22 01:55:40;;;;;;;;;15.00;15.00;;;;;18.95;100.00;100675.13;6275548;22;45253;-84
2022/06/22 01:58:53;;;;;;;;;18.75;17.00;;;;;18.92;100.00;100680.81;6283614;22;44810;-84
2022/06/22 02:01:28;;;;;;;;;15.25;12.50;;;;;18.90;100.00;100685.50;6210013;22;45230;-84
2022/06/22 02:04:08;;;;;;;;;14.60;12.40;;;;;18.95;100.00;100682.34;6209775;22;44724;-83
2022/06/22 02:10:15;;;;;;;;;15.20;11.80;;;;;18.86;100.00;100686.84;6210625;22;44832;-84
2022/06/22 02:12:49;;;;;;;;;16.00;16.00;;;;;18.86;100.00;100694.06;6210689;22;45308;-84
2022/06/22 02:15:39;;;;;;;;;15.20;13.60;;;;;18.85;100.00;100686.97;6210336;22;45345;-83
2022/06/22 02:18:15;;;;;;;;;14.60;14.60;;;;;18.78;100.00;100685.94;6211503;22;44845;-83
2022/06/22 02:20:41;;;;;;;;;17.25;14.75;;;;;18.73;100.00;100687.25;6212625;22;44778;-84
2022/06/22 02:23:09;;;;;;;;;17.00;17.00;;;;;18.66;100.00;100674.53;6210766;22;45166;-84
2022/06/22 02:25:44;;;;;;;;;14.60;14.60;;;;;18.64;100.00;100671.16;6208610;22;44860;-84
2022/06/22 02:28:10;;;;;;;;;16.60;16.60;;;;;18.61;100.00;100672.31;6184425;22;44777;-84
2022/06/22 02:30:35;;;;;;;;;15.00;13.75;;;;;18.58;100.00;100672.63;6210033;22;45295;-83
2022/06/22 02:33:01;;;;;;;;;14.75;14.75;;;;;18.56;100.00;100679.16;6210021;22;45129;-83
2022/06/22 02:35:27;;;;;;;;;18.50;17.50;;;;;18.58;100.00;100675.31;6212742;22;45358;-84
2022/06/22 02:38:02;;;;;;;;;16.25;16.25;;;;;18.59;100.00;100668.09;6260062;22;45365;-83
2022/06/22 02:40:30;;;;;;;;;19.50;16.75;;;;;18.64;100.00;100661.25;6274743;22;45353;-83
2022/06/22 02:45:42;;;;;;;;;16.60;15.40;;;;;18.65;100.00;100662.91;6276821;22;45358;-84
2022/06/22 02:48:22;;;;;;;;;21.20;17.60;;;;;18.69;100.00;100660.81;6279730;22;44790;-82
2022/06/22 02:50:58;;;;;;;;;20.00;17.00;;;;;18.72;100.00;100655.97;6282193;22;44869;-84
2022/06/22 02:53:34;;;;;;;;;20.25;18.75;;;;;18.73;100.00;100638.78;6282419;22;45119;-83
2022/06/22 02:56:01;;;;;;;;;16.40;15.40;;;;;18.75;100.00;100641.31;6276254;22;44665;-83
2022/06/22 02:58:33;;;;;;;;;20.00;18.20;;;;;18.72;100.00;100634.44;6276945;22;45373;-84
2022/06/22 03:01:12;;;;;;;;;16.75;15.00;;;;;18.67;100.00;100638.56;6277130;22;44772;-84
2022/06/22 03:03:39;;;;;;;;;15.25;15.25;;;;;18.67;100.00;100627.81;6275137;22;45325;-82
2022/06/22 03:06:09;;;;;;;;;15.60;15.60;;;;;18.64;100.00;100612.78;6276154;22;44746;-82
2022/06/22 03:08:35;;;;;;;;;17.60;16.60;;;;;18.62;100.00;100605.91;6279238;22;45424;-83
2022/06/22 03:11:04;;;;;;;;;17.75;16.75;;;;;18.60;100.00;100606.03;6280934;22;45368;-84
2022/06/22 03:13:36;;;;;;;;;19.50;16.75;;;;;18.55;100.00;100602.97;6283991;22;45236;-83
2022/06/22 03:16:01;;;;;;;;;11.60;7.40;;;;;18.54;100.00;100606.69;6278559;22;44719;-83
2022/06/22 03:18:30;;;;;;;;;20.50;18.25;;;;;18.55;100.00;100604.81;6277040;22;44793;-84
2022/06/22 03:21:01;;;;;;;;;22.25;19.50;;;;;18.55;100.00;100611.06;6275991;22;45266;-83
2022/06/22 03:23:46;;;;;;;;;14.75;14.25;;;;;18.53;100.00;100602.31;6276778;22;45320;-85
2022/06/22 03:26:23;;;;;;;;;16.80;16.00;;;;;18.58;100.00;100604.53;6257826;22;45365;-80
2022/06/22 03:29:20;;;;;;;;;15.00;13.60;;;;;18.63;100.00;100605.72;6273866;22;45349;-79
2022/06/22 03:31:59;;;;;;;;;19.50;17.25;;;;;18.61;100.00;100594.28;6273836;22;45436;-80
2022/06/22 03:34:33;;;;;;;;;24.50;20.25;;;;;18.59;100.00;100593.59;6276393;22;45249;-84
2022/06/22 03:37:09;;;;;;;;;18.80;18.40;;;;;18.64;100.00;100601.19;6247580;22;45351;-80
2022/06/22 03:39:41;;;;;;;;;22.50;18.50;;;;;18.64;100.00;100601.19;6247918;22;44683;-80
2022/06/22 03:42:14;;;;;;;;;19.00;17.25;;;;;18.63;100.00;100592.28;6247513;22;44905;-81
2022/06/22 03:44:52;;;;;;;;;18.00;16.25;;;;;18.60;100.00;100597.13;6245978;22;45369;-80
2022/06/22 03:47:43;;;;;;;;;18.60;18.20;;;;;18.55;100.00;100602.97;6274585;22;45356;-81
2022/06/22 03:50:30;;;;;;;;;22.50;18.25;;;;;18.53;100.00;100601.47;6274775;22;45455;-81
2022/06/22 03:53:06;;;;;;;;;19.00;16.75;;;;;18.48;100.00;100597.41;6278124;22;44798;-81
2022/06/22 03:55:36;;;;;;;;;18.00;16.50;;;;;18.41;100.00;100595.47;6279662;22;45056;-79
2022/06/22 03:58:06;;;;;;;;;20.80;20.80;;;;;18.40;100.00;100586.56;6273725;22;44771;-81
2022/06/22 04:00:34;;;;;;;;;20.25;19.00;;;;;18.35;100.00;100594.25;6274202;22;45344;-81
2022/06/22 04:03:05;;;;;;;;;21.25;19.25;;;;;18.34;100.00;100589.06;6280131;22;45077;-81
2022/06/22 04:05:46;;;;;;;;;18.75;17.75;;;;;18.38;100.00;100596.66;6252995;22;45419;-80
2022/06/22 04:08:33;;;;;;;;;20.25;20.25;;;;;18.44;100.00;100609.47;6275723;22;44781;-79
2022/06/22 04:11:20;;;;;;;;;19.75;18.00;;;;;18.42;100.00;100610.59;6274435;22;45527;-81
2022/06/22 04:14:02;;;;;;;;;25.50;23.00;;;;;18.45;100.00;100616.53;6274625;22;44821;-82
2022/06/22 04:16:35;;;;;;;;;17.00;17.00;;;;;18.55;100.00;100623.66;6273413;22;45180;-81
2022/06/22 04:19:06;;;;;;;;;17.40;16.00;;;;;18.64;100.00;100630.78;6246884;22;44677;-81
2022/06/22 04:21:48;;;;;;;;;17.00;17.00;;;;;18.74;100.00;100636.94;6275238;22;44747;-78
2022/06/22 04:24:23;;;;;;;;;16.75;14.75;;;;;18.73;100.00;100627.19;6278383;22;45396;-82
2022/06/22 04:27:05;;;;;;;;;19.00;18.50;;;;;18.69;100.00;100633.88;6275998;22;45456;-83
2022/06/22 04:30:04;;;;;;;;;18.20;16.20;;;;;18.77;100.00;100611.59;6251245;22;45160;-82
2022/06/22 04:32:59;;;;;;;;;20.00;16.80;;;;;18.70;100.00;100593.34;6285483;22;45373;-84
2022/06/22 04:35:38;;;;;;;;;23.75;18.00;;;;;18.74;100.00;100599.28;6280452;22;45513;-84
2022/06/22 04:38:26;;;;;;;;;19.50;17.00;;;;;18.80;100.00;100601.31;6275314;22;45164;-82
2022/06/22 04:41:00;;;;;;;;;17.80;17.80;;;;;18.80;100.00;100592.41;6276079;22;45155;-82
2022/06/22 04:43:31;;;;;;;;;20.75;18.00;;;;;18.87;100.00;100602.38;6249483;22;45321;-82
2022/06/22 04:49:31;;;;;;;;;;;;;;;;;;;;;
2022/06/22 04:52:04;;;;;;;;;18.80;17.60;;;;;19.01;100.00;100614.41;6208270;22;72427;-82
2022/06/22 04:54:40;;;;;;;;;20.25;19.00;;;;;19.03;100.00;100603.47;6215446;22;44694;-81
2022/06/22 04:57:27;;;;;;;;;22.75;17.25;;;;;19.03;100.00;100611.53;6219434;22;45358;-82
2022/06/22 04:59:54;;;;;;;;;20.75;20.75;;;;;19.00;100.00;100613.56;6186607;22;46938;-83
2022/06/22 05:02:27;;;;;;;;;22.60;19.60;;;;;18.88;100.00;100597.84;6211744;22;44768;-81
2022/06/22 05:05:09;;;;;;;;;18.20;15.80;;;;;18.79;100.00;100588.88;6209537;22;44850;-81
2022/06/22 05:07:52;;;;;;;;;17.75;17.75;;;;;18.69;100.00;100588.13;6186089;22;45284;-83
2022/06/22 05:10:32;;;;;;;;;21.00;20.75;;;;;18.59;100.00;100593.59;6215119;22;45065;-80
2022/06/22 05:13:03;;;;;;;;;25.75;20.00;;;;;18.54;100.00;100593.22;6218532;22;44818;-82
2022/06/22 05:15:34;;;;;;;;;22.75;17.75;;;;;18.49;100.00;100591.00;6214542;22;44956;-80
2022/06/22 05:18:03;;;;;;;;;18.75;17.50;;;;;18.48;100.00;100592.00;6211628;22;44799;-82
2022/06/22 05:20:40;;;;;;;;;25.00;25.00;;;;;18.38;100.00;100585.91;6213059;22;45127;-81
2022/06/22 05:23:09;;;;;;;;;20.50;18.50;;;;;18.43;100.00;100598.88;6214592;22;45306;-81
2022/06/22 05:25:36;;;;;;;;;20.00;17.25;;;;;18.37;100.00;100602.16;6214607;22;44815;-83
2022/06/22 05:28:08;;;;;;;;;22.75;22.75;;;;;18.35;100.00;100588.88;6275495;22;44777;-81
2022/06/22 05:31:03;;;;;;;;;26.75;23.75;;;;;18.39;100.00;100587.56;6275816;22;45342;-81
2022/06/22 05:33:39;;;;;;;;;20.25;18.50;;;;;18.30;100.00;100583.13;6274940;22;45451;-81
2022/06/22 05:36:11;;;;;;;;;23.00;23.00;;;;;18.32;100.00;100578.44;6277241;22;44791;-79
2022/06/22 05:38:44;;;;;;;;;22.50;21.00;;;;;18.36;100.00;100584.34;6277896;22;45395;-82
2022/06/22 05:41:12;;;;;;;;;23.50;21.25;;;;;18.27;100.00;100590.66;6276919;22;45173;-83
2022/06/22 05:43:39;;;;;;;;;24.00;19.75;;;;;18.27;100.00;100593.34;6282832;22;44733;-82
2022/06/22 05:46:06;;;;;;;;;26.25;23.75;;;;;18.16;100.00;100584.53;6287766;22;44642;-82
2022/06/22 05:48:40;;;;;;;;;21.75;20.25;;;;;18.15;100.00;100592.75;6286181;22;44844;-80
2022/06/22 05:51:11;;;;;;;;;20.25;20.25;;;;;18.27;100.00;100596.03;6284892;22;44991;-82
2022/06/22 05:53:52;;;;;;;;;25.00;21.75;;;;;18.28;100.00;100595.91;6283539;22;44730;-82
2022/06/22 05:56:29;;;;;;;;;25.00;23.50;;;;;18.26;100.00;100599.72;6275681;22;44809;-81
2022/06/22 05:59:10;;;;;;;;;29.75;25.75;;;;;18.23;100.00;100590.16;6277040;22;45242;-84
2022/06/22 06:01:48;;;;;;;;;23.50;21.75;;;;;18.05;100.00;100590.16;6275928;22;45227;-81
2022/06/22 06:04:43;;;;;;;;;33.25;26.25;;;;;18.06;100.00;100588.31;6279377;22;45514;-83
2022/06/22 06:07:18;;;;;;;;;23.50;22.25;;;;;17.96;100.00;100570.41;6279630;22;45222;-83
2022/06/22 06:09:44;;;;;;;;;20.50;20.50;;;;;17.98;100.00;100571.09;6279189;22;44888;-83
2022/06/22 06:12:25;;;;;;;;;24.50;23.25;;;;;17.82;100.00;100578.19;6279667;22;45525;-82
2022/06/22 06:14:53;;;;;;;;;25.25;23.75;;;;;17.80;100.00;100605.22;6280283;22;44682;-82
2022/06/22 06:17:30;;;;;;;;;27.00;21.50;;;;;17.84;100.00;100595.84;6280761;22;44877;-83
2022/06/22 06:19:58;;;;;;;;;19.50;17.75;;;;;17.87;100.00;100592.00;6251224;22;44892;-82
2022/06/22 06:22:30;;;;;;;;;24.50;21.50;;;;;18.00;100.00;100597.00;6277307;22;45406;-82
2022/06/22 06:28:05;;;;;;;;;28.75;26.25;;;;;17.99;100.00;100588.09;6278154;22;44674;-84
2022/06/22 06:30:44;;;;;;;;;22.75;22.75;;;;;18.00;100.00;100595.16;6279674;22;45401;-84
2022/06/22 06:33:25;;;;;;;;;23.00;23.00;;;;;17.99;100.00;100588.09;6284459;22;45016;-83
2022/06/22 06:35:57;;;;;;;;;23.50;20.75;;;;;18.02;100.00;100584.25;6252150;22;45163;-82
2022/06/22 06:39:08;;;;;;;;;23.25;19.50;;;;;18.06;100.00;100586.47;6281120;22;44693;-81
2022/06/22 06:41:40;;;;;;;;;24.00;21.25;;;;;18.11;100.00;100586.00;6280145;22;44796;-83
2022/06/22 06:44:54;;;;;;;;;21.50;20.50;;;;;18.14;100.00;100593.78;6253141;22;45203;-84
2022/06/22 06:50:49;;;;;;;;;22.75;22.75;;;;;18.29;100.00;100600.28;6266767;22;44905;-81
2022/06/22 06:53:57;;;;;;;;;21.50;20.25;;;;;18.22;100.00;100600.03;6281472;22;45254;-84
2022/06/22 06:57:25;;;;;;;;;28.50;27.75;;;;;18.14;100.00;100602.69;6215046;22;45477;-84
2022/06/22 07:00:10;;;;;;;;;17.75;16.00;;;;;18.01;100.00;100607.59;6068282;23;45254;-85
2022/06/22 07:02:42;;;;;;;;;16.50;16.50;;;;;17.91;100.00;100618.41;6095874;23;44709;-82
2022/06/22 07:05:14;;;;;;;;;18.75;15.75;;;;;17.96;100.00;100604.53;6071276;23;45511;-82
2022/06/22 07:08:15;;;;;;;;;21.50;21.25;;;;;18.08;100.00;100618.56;6096044;23;45418;-83
2022/06/22 07:11:15;;;;;;;;;20.00;19.75;;;;;18.21;100.00;100617.19;6039424;23;45171;-83
2022/06/22 07:14:01;;;;;;;;;24.75;21.50;;;;;18.24;100.00;100600.75;6015737;23;44769;-83
2022/06/22 07:17:00;;;;;;;;;22.00;18.00;;;;;18.27;100.00;100604.94;6014546;23;44885;-83
2022/06/22 07:23:27;;;;;;;;;20.75;19.00;;;;;18.27;100.00;100604.09;5951672;23;44789;-83
2022/06/22 07:26:41;;;;;;;;;18.00;15.75;;;;;18.42;100.00;100613.28;5927674;23;45437;-83
2022/06/22 07:29:43;;;;;;;;;23.25;22.50;;;;;18.52;100.00;100603.31;5935452;23;45287;-83
2022/06/22 07:32:27;;;;;;;;;24.50;22.00;;;;;18.61;100.00;100612.25;5929097;23;46633;-82
2022/06/22 07:35:06;;;;;;;;;25.50;23.75;;;;;18.65;100.00;100606.41;5921795;24;44824;-82
2022/06/22 07:38:06;;;;;;;;;23.50;21.00;;;;;18.78;100.00;100608.72;6003192;23;44847;-83
2022/06/22 07:40:38;;;;;;;;;30.25;28.00;;;;;18.84;100.00;100618.00;6009457;23;45176;-81
2022/06/22 07:43:47;;;;;;;;;24.75;22.00;;;;;18.81;100.00;100615.63;6015240;23;45318;-82
2022/06/22 07:46:34;;;;;;;;;20.00;20.00;;;;;18.92;100.00;100623.44;6023361;23;44706;-83
2022/06/22 07:49:16;;;;;;;;;23.75;21.25;;;;;18.85;100.00;100611.59;6163492;23;44767;-85
2022/06/22 07:51:54;;;;;;;;;28.75;25.00;;;;;18.97;100.00;100613.88;6139222;23;44851;-85
2022/06/22 07:54:27;;;;;;;;;17.25;17.25;;;;;19.01;100.00;100619.78;6241434;22;45226;-86
2022/06/22 07:57:06;;;;;;;;;24.00;20.00;;;;;19.05;100.00;100615.78;6281180;22;45098;-83
2022/06/22 07:59:37;;;;;;;;;17.75;17.00;;;;;19.14;100.00;100624.72;6280444;22;45199;-84
2022/06/22 08:02:13;;;;;;;;;24.25;22.50;;;;;19.47;100.00;100614.94;6281181;22;44560;-84
2022/06/22 08:04:58;;;;;;;;;28.50;22.50;;;;;19.72;100.00;100627.50;6280281;22;46157;-82
2022/06/22 08:07:32;;;;;;;;;21.00;19.00;;;;;20.08;100.00;100626.38;6278974;22;56192;-82
2022/06/22 08:10:07;;;;;;;;;22.75;20.75;;;;;20.70;100.00;100633.00;6279298;22;44606;-83
2022/06/22 08:13:04;;;;;;;;;23.25;18.75;;;;;21.19;100.00;100632.03;6280380;22;44710;-81
2022/06/22 08:15:37;;;;;;;;;27.50;23.25;;;;;21.33;100.00;100630.50;6280496;22;45345;-82
2022/06/22 08:18:03;;;;;;;;;18.75;18.75;;;;;21.47;100.00;100636.00;6250077;22;44758;-82
2022/06/22 08:21:00;;;;;;;;;19.50;19.50;;;;;21.61;100.00;100620.03;6283455;22;44689;-83
2022/06/22 08:23:35;;;;;;;;;29.00;23.25;;;;;21.58;100.00;100629.34;6262288;22;44811;-82
2022/06/22 08:26:05;;;;;;;;;24.00;23.50;;;;;21.35;100.00;100639.25;6291683;22;44934;-86
2022/06/22 08:28:34;;;;;;;;;24.50;21.50;;;;;21.39;100.00;100643.28;6274662;22;44591;-87
2022/06/22 08:31:03;;;;;;;;;26.25;25.25;;;;;21.34;100.00;100633.00;6303076;22;44722;-88
2022/06/22 08:33:50;;;;;;;;;27.75;24.00;;;;;21.25;100.00;100637.56;6273673;22;44780;-84
2022/06/22 08:36:33;;;;;;;;;22.50;21.50;;;;;21.54;100.00;100639.66;6302923;22;45074;-84
2022/06/22 08:39:13;;;;;;;;;28.80;22.80;;;;;21.63;100.00;100629.66;6300309;22;44781;-84
2022/06/22 08:42:04;;;;;;;;;28.00;23.75;;;;;21.54;100.00;100636.13;6283027;22;45022;-85
2022/06/22 08:44:48;;;;;;;;;28.00;24.25;;;;;21.41;100.00;100639.38;6281789;22;44744;-84
2022/06/22 08:48:00;;;;;;;;;22.50;22.50;;;;;21.47;100.00;100627.06;6258858;22;44898;-86
2022/06/22 08:51:07;;;;;;;;;24.20;24.20;;;;;21.57;100.00;100637.66;6260643;22;44746;-85
2022/06/22 08:54:00;;;;;;;;;27.20;20.40;;;;;21.61;100.00;100625.44;6289763;22;44746;-84
2022/06/22 08:56:44;;;;;;;;;25.75;20.75;;;;;21.68;100.00;100626.41;6262927;22;44834;-85
2022/06/22 08:59:36;;;;;;;;;19.75;19.00;;;;;21.64;100.00;100638.59;6292008;22;45146;-84
2022/06/22 09:02:44;;;;;;;;;23.00;18.40;;;;;21.76;100.00;100629.09;6290289;22;44622;-85
2022/06/22 09:05:25;;;;;;;;;21.20;19.20;;;;;21.91;100.00;100632.72;6285746;22;44726;-82
2022/06/22 09:08:21;;;;;;;;;22.25;20.25;;;;;21.90;100.00;100631.00;6283450;22;45436;-83
2022/06/22 09:11:09;;;;;;;;;19.25;18.25;;;;;22.05;100.00;100639.22;6283860;22;45585;-82
2022/06/22 09:13:50;;;;;;;;;22.40;22.40;;;;;22.48;100.00;100634.16;6279498;22;44725;-82
2022/06/22 09:16:34;;;;;;;;;19.60;17.20;;;;;22.82;100.00;100634.50;6276730;22;44674;-82
2022/06/22 09:19:44;;;;;;;;;19.00;17.75;;;;;23.05;100.00;100626.31;6276930;22;44804;-81
2022/06/22 09:22:19;;;;;;;;;27.20;21.60;;;;;23.17;100.00;100626.72;6268250;22;45004;-82
2022/06/22 09:25:06;;;;;;;;;23.00;20.00;;;;;23.15;100.00;100631.47;6286136;22;44652;-81
2022/06/22 09:28:16;;;;;;;;;19.80;18.60;;;;;23.37;100.00;100643.22;6257759;22;44814;-82
2022/06/22 09:31:06;;;;;;;;;20.25;18.75;;;;;23.60;100.00;100651.25;6283277;22;44625;-83
2022/06/22 09:34:16;;;;;;;;;28.80;23.00;;;;;23.72;100.00;100654.34;6277773;22;45377;-83
2022/06/22 09:37:09;;;;;;;;;21.40;19.60;;;;;23.58;100.00;100648.72;6279217;22;45394;-83
2022/06/22 09:39:45;;;;;;;;;20.80;18.20;;;;;23.43;100.00;100644.34;6251160;22;45305;-82
2022/06/22 09:42:17;;;;;;;;;24.75;20.25;;;;;23.50;100.00;100640.69;6251450;22;44784;-85
2022/06/22 09:44:56;;;;;;;;;21.00;14.20;;;;;23.67;100.00;100640.50;6278552;22;45265;-83
2022/06/22 09:47:38;;;;;;;;;20.20;17.60;;;;;23.77;100.00;100631.03;6280148;22;44738;-82
2022/06/22 09:50:12;;;;;;;;;21.80;20.80;;;;;23.78;100.00;100627.28;6279953;22;44833;-82
2022/06/22 09:52:50;;;;;;;;;28.00;26.75;;;;;23.81;100.00;100626.91;6281011;22;44767;-83
2022/06/22 09:56:27;;;;;;;;;25.00;21.75;;;;;23.90;100.00;100634.94;6283693;22;45377;-82
2022/06/22 09:58:58;;;;;;;;;18.80;18.60;;;;;23.98;100.00;100642.94;6265370;22;44544;-81
2022/06/22 10:01:42;;;;;;;;;21.00;19.20;;;;;24.06;100.00;100640.09;6279932;22;44733;-85
2022/06/22 10:07:32;;;;;;;;;19.20;17.80;;;;;24.16;100.00;100632.47;6283764;22;44881;-85
2022/06/22 10:10:45;;;;;;;;;20.40;18.00;;;;;24.18;100.00;100637.72;6281965;22;44609;-86
2022/06/22 10:13:41;;;;;;;;;18.80;16.60;;;;;24.39;100.00;100642.34;6160846;23;44664;-84
2022/06/22 10:16:48;;;;;;;;;18.25;18.00;;;;;24.39;100.00;100628.75;6252726;22;44902;-84
2022/06/22 10:19:29;;;;;;;;;20.00;17.80;;;;;24.65;100.00;100630.84;6129483;23;45027;-88
2022/06/22 10:22:44;;;;;;;;;17.40;17.40;;;;;24.94;100.00;100624.34;6130449;23;44837;-85
2022/06/22 10:25:31;;;;;;;;;20.00;18.80;;;;;25.24;100.00;100622.25;6130052;23;44781;-85
2022/06/22 10:29:01;;;;;;;;;21.50;19.75;;;;;25.40;100.00;100631.97;6132096;23;44803;-84
2022/06/22 10:31:44;;;;;;;;;28.50;24.00;;;;;25.36;100.00;100618.75;6103466;23;46728;-84
2022/06/22 10:34:27;;;;;;;;;22.00;21.40;;;;;25.59;100.00;100614.88;6127684;23;44624;-85
2022/06/22 10:37:15;;;;;;;;;19.20;14.80;;;;;25.74;100.00;100604.69;6127357;23;44824;-83
2022/06/22 10:39:46;;;;;;;;;24.75;23.50;;;;;26.08;100.00;100606.44;6101968;23;44942;-86
2022/06/22 10:45:20;;;;;;;;;14.60;14.60;;;;;26.52;100.00;100602.31;6128742;23;44775;-84
2022/06/22 10:48:05;;;;;;;;;17.60;16.20;;;;;26.41;100.00;100600.19;6131384;23;44603;-84
2022/06/22 10:51:20;;;;;;;;;14.80;12.60;;;;;26.17;100.00;100589.91;6239455;22;44780;-85
2022/06/22 10:54:10;;;;;;;;;18.60;15.00;;;;;26.48;100.00;100590.16;6226085;22;45084;-85
2022/06/22 10:57:09;;;;;;;;;7.00;6.80;;;;;26.86;100.00;100595.75;6282442;22;44642;-86
2022/06/22 11:00:03;;;;;;;;;9.80;9.80;;;;;26.90;100.00;100588.84;6282178;22;44647;-84
2022/06/22 11:03:15;;;;;;;;;13.60;10.00;;;;;26.97;100.00;100596.97;6283747;22;44637;-85
2022/06/22 11:06:21;;;;;;;;;14.60;13.60;;;;;26.82;100.00;100578.16;6288179;22;45090;-85
2022/06/22 11:09:20;;;;;;;;;18.60;15.00;;;;;26.63;100.00;100596.22;6255636;22;44733;-81
2022/06/22 11:12:30;;;;;;;;;18.40;16.20;;;;;26.57;100.00;100599.78;6279192;22;44714;-81
2022/06/22 11:15:22;;;;;;;;;14.60;13.00;;;;;26.44;100.00;100604.41;6253577;22;44840;-82
2022/06/22 11:18:43;;;;;;;;;11.60;11.60;;;;;26.59;100.00;100600.44;6280594;22;45144;-83
2022/06/22 11:21:47;;;;;;;;;12.80;12.80;;;;;26.33;100.00;100597.66;6242537;22;44842;-82
2022/06/22 11:24:13;;;;;;;;;10.60;10.00;;;;;25.92;100.00;100601.41;6288640;22;44788;-81
2022/06/22 11:33:04;;;;;;;;;12.80;12.80;;;;;25.87;100.00;100607.47;6279698;22;44768;-82
2022/06/22 11:36:24;;;;;;;;;15.80;15.20;;;;;25.84;100.00;100604.31;6250237;22;44804;-82
2022/06/22 11:39:28;;;;;;;;;15.60;14.00;;;;;25.63;100.00;100600.69;6258384;22;45014;-85
2022/06/22 11:42:42;;;;;;;;;12.80;10.40;;;;;25.23;100.00;100612.41;6261425;22;46573;-84
2022/06/22 11:48:38;;;;;;;;;12.80;9.20;;;;;24.86;100.00;100600.91;6277380;22;44646;-82
2022/06/22 11:51:26;;;;;;;;;12.80;12.80;;;;;24.81;100.00;100608.81;6279589;22;44833;-85
2022/06/22 11:54:04;;;;;;;;;21.00;19.00;;;;;24.81;100.00;100606.94;6279848;22;45325;-84
2022/06/22 11:56:44;;;;;;;;;16.20;16.20;;;;;24.94;100.00;100608.88;6284085;22;44579;-82
2022/06/22 11:59:34;;;;;;;;;18.80;14.60;;;;;25.09;100.00;100612.38;6286923;22;44724;-81
2022/06/22 12:02:02;;;;;;;;;15.00;15.00;;;;;25.17;100.00;100618.66;6287027;22;44689;-83
2022/06/22 12:04:37;;;;;;;;;16.40;16.40;;;;;25.08;100.00;100618.81;6252480;22;47242;-81
2022/06/22 12:07:55;;;;;;;;;20.80;17.60;;;;;25.06;100.00;100620.06;6254706;22;44764;-83
2022/06/22 12:10:32;;;;;;;;;18.80;16.80;;;;;25.11;100.00;100617.59;6247668;22;44797;-83
2022/06/22 12:13:31;;;;;;;;;14.80;14.40;;;;;25.22;100.00;100630.63;6280624;22;45185;-82
2022/06/22 12:16:12;;;;;;;;;17.20;15.40;;;;;25.33;100.00;100627.31;6283037;22;45171;-84
2022/06/22 12:18:50;;;;;;;;;17.20;17.20;;;;;25.40;100.00;100632.81;6286435;22;44705;-85
2022/06/22 12:21:19;;;;;;;;;21.40;15.20;;;;;25.36;100.00;100634.25;6254403;22;44817;-86
2022/06/22 12:23:55;;;;;;;;;16.20;15.40;;;;;25.29;100.00;100626.06;6282644;22;44946;-85
2022/06/22 12:26:45;;;;;;;;;21.00;18.80;;;;;25.33;100.00;100629.19;6277179;22;45305;-83
2022/06/22 12:29:34;;;;;;;;;18.00;16.60;;;;;25.28;100.00;100628.97;6276661;22;44925;-82
2022/06/22 12:32:13;;;;;;;;;18.60;17.20;;;;;25.37;100.00;100625.88;6250358;22;45312;-82
2022/06/22 12:35:04;;;;;;;;;19.40;19.40;;;;;25.37;100.00;100630.47;6283198;22;44717;-81
2022/06/22 12:37:43;;;;;;;;;16.80;15.60;;;;;25.38;100.00;100624.00;6255640;22;46596;-83
2022/06/22 12:40:28;;;;;;;;;18.80;18.00;;;;;25.42;100.00;100628.00;6278664;22;44795;-83
2022/06/22 12:42:57;;;;;;;;;23.20;20.40;;;;;25.45;100.00;100613.16;6276867;22;45445;-82
2022/06/22 12:45:38;;;;;;;;;21.00;21.00;;;;;25.46;100.00;100614.84;6279452;22;44642;-82